Sacul, Texas
Current Conditions -  °F | °C
As of 4:35 AM on Friday 24 Oct 2014 (Local Time) from KJSO Reporting Station
Clear Clear  
Wind Chill: 56°   Ceiling: Unl
Heat Index: 56°   Visibility: 10mi
Dew Point: 50°   Wind: 3mph
Humidity: 79%   Direction: 120°ESE
Pressure: 30.15"   Gusts: NA
Location:  31.82°N, 94.92°W
Report Text: KJSO 240935Z AUTO 12003KT 10SM CLR 13/10 A3015 RMK AO2 T01350100
Loading
Personal Weather Stations






























Interactive Weather Map
Tropical Storm Tracking
New forecast layout! Learn more

10-Day Weather Forecast

Advertisements
Track Severe Weather on mobile